• Join FlightAware (Why Join?)
  • Login
  • US Flag 
09:56PM EDT


 

Airport Tracker/Info


-or-


 

Live Flight TrackerFlight Track Log ✈ DAL3698 ✈ 14-Jul-2013 ✈ KEWR - KCVG

Flight Track Log - Related Links

Times and Time Zones

All times are in EDT time to prevent confusion due to time zone crossing. See the DAL3698 flight status page for this flight to view local times or setup timezone preferences in your user account.

Time Position Orientation Groundspeed Altitude Reporting Facility
EDT Latitude Longitude Course Direction KTS MPH feet Rate Location/Type
01:46PM 40.6500 -74.1833 217° Southwest 170 196 1,500  Level New York TRACON
01:47PM 40.6167 -74.2167 217° Southwest 209 241 3,900 2,400 Climbing New York TRACON
01:48PM 40.6000 -74.3000 255° West 215 247 6,400 2,160 Climbing New York TRACON
01:49PM 40.6834 -74.6428 270° West  Level FlightAware Approximate
01:50PM 40.6834 -74.8015 270° West  Level FlightAware Approximate
01:50PM 40.5983 -74.4444 269° West 266 306 9,600  Level New York Center
01:51PM 40.6833 -74.9603 270° West  Level FlightAware Approximate
01:51PM 40.6139 -74.5408 282° West 284 327 10,700  Level New York Center
01:52PM 40.6592 -75.1075 217° Southwest  Level FlightAware Approximate
01:52PM 40.6325 -74.6733 281° West 325 374 12,300  Level New York Center
01:53PM 40.6475 -74.7864 280° West 338 389 13,700 1,380 Climbing New York Center
01:54PM 40.6656 -74.9269 280° West 354 407 15,200 1,320 Climbing New York Center
01:55PM 40.6794 -75.0589 278° West 363 418 16,400 1,080 Climbing New York Center
01:56PM 40.6375 -75.1822 246° West 363 418 17,400 660 Climbing New York Center
01:57PM 40.5831 -75.3017 239° Southwest 369 425 17,800 600 Climbing New York Center
01:58PM 40.5308 -75.4131 238° Southwest 389 448 18,700 720 Climbing New York Center
01:59PM 40.4758 -75.5375 240° Southwest 394 453 19,300 660 Climbing New York Center
02:00PM 40.4164 -75.6614 238° Southwest 394 453 20,100 720 Climbing New York Center
02:01PM 40.3589 -75.7908 240° Southwest 399 459 20,800 660 Climbing New York Center
02:02PM 40.2881 -75.9356 237° Southwest 419 482 21,500 600 Climbing New York Center
02:03PM 40.2283 -76.0642 239° Southwest 424 488 22,100 540 Climbing New York Center
02:04PM 40.1775 -76.1692 238° Southwest 424 488 22,600 600 Climbing New York Center
02:05PM 40.1106 -76.3131 239° Southwest 424 488 23,300 600 Climbing New York Center
02:06PM 40.0500 -76.4467 239° Southwest 424 488 23,900 540 Climbing New York Center
02:07PM 39.9914 -76.5800 240° Southwest 424 488 24,500 540 Climbing New York Center
02:09PM 39.8633 -76.8431 238° Southwest 430 495 25,700 540 Climbing Washington Center
02:10PM 39.8017 -76.9742 239° Southwest 430 495 26,300 540 Climbing Washington Center
02:11PM 39.7394 -77.1081 239° Southwest 425 489 26,800 480 Climbing Washington Center
02:12PM 39.6775 -77.2389 238° Southwest 425 489 27,300 480 Climbing Washington Center
02:13PM 39.6131 -77.3747 238° Southwest 425 489 27,800 300 Climbing Washington Center
02:14PM 39.5506 -77.5050 238° Southwest 430 495 28,000 60 Climbing Washington Center
02:15PM 39.4878 -77.6406 239° Southwest 430 495 28,000  Level Washington Center
02:16PM 39.4186 -77.7811 238° Southwest 449 517 28,000  Level Washington Center
02:17PM 39.3556 -77.9242 240° Southwest 454 522 28,000  Level Washington Center
02:18PM 39.2942 -78.0856 244° Southwest 460 529 28,000  Level Washington Center
02:19PM 39.2347 -78.2283 242° Southwest 465 535 28,000  Level Washington Center
02:20PM 39.1772 -78.3789 244° Southwest 465 535 28,000  Level Washington Center
02:21PM 39.1175 -78.5211 242° Southwest 465 535 28,000  Level Washington Center
02:22PM 39.0597 -78.6658 243° Southwest 460 529 28,000  Level Washington Center
02:23PM 38.9994 -78.8128 242° Southwest 460 529 28,000  Level Washington Center
02:24PM 38.9414 -78.9544 242° Southwest 460 529 28,000  Level Washington Center
02:25PM 38.8811 -79.1011 242° Southwest 460 529 28,000  Level Washington Center
02:26PM 38.8389 -79.2564 251° West 460 529 28,000  Level Washington Center
02:27PM 38.8358 -79.4161 269° West 450 518 28,000  Level Washington Center
02:28PM 38.8328 -79.5758 269° West 455 524 28,000  Level Washington Center
02:29PM 38.8317 -79.7303 270° West 468 539 28,000  Level Washington Center
02:30PM 38.8275 -79.9086 268° West 468 539 28,000  Level Washington Center
02:31PM 38.8219 -80.0672 267° West 458 527 28,000  Level Indianapolis Center
02:32PM 38.8172 -80.2308 268° West 460 529 28,000  Level Indianapolis Center
02:33PM 38.8122 -80.3947 268° West 461 531 28,000  Level Indianapolis Center
02:34PM 38.8083 -80.5575 268° West 457 526 28,000  Level Indianapolis Center
02:35PM 38.8036 -80.7219 268° West 461 531 28,000  Level Indianapolis Center
02:36PM 38.7983 -80.8886 268° West 462 532 28,000  Level Indianapolis Center
02:37PM 38.7753 -81.0464 259° West 456 525 28,000  Level Indianapolis Center
02:38PM 38.7456 -81.2375 259° West 455 524 28,000  Level Indianapolis Center
02:39PM 38.7211 -81.3964 259° West 455 524 28,000  Level Indianapolis Center
02:40PM 38.6950 -81.5564 258° West 458 527 28,000  Level Indianapolis Center
02:41PM 38.6717 -81.7014 258° West 460 529 28,000 -480 Level Indianapolis Center
02:42PM 38.6397 -81.8931 258° West 459 528 27,100 -1,140 Descending Indianapolis Center
02:43PM 38.6131 -82.0539 258° West 461 531 25,700 -1,260 Descending Indianapolis Center
02:44PM 38.5858 -82.2119 258° West 458 527 24,500 -840 Descending Indianapolis Center
02:45PM 38.5594 -82.3686 258° West 454 522 24,000 -300 Descending Indianapolis Center
02:46PM 38.5314 -82.5311 258° West 442 509 24,000  Level Indianapolis Center
02:48PM 38.5056 -82.6822 258° West 437 503 24,000 -360 Level Indianapolis Center
02:49PM 38.4781 -82.8378 257° West 445 512 23,300 -960 Descending Indianapolis Center
02:50PM 38.4469 -83.0153 257° West 443 510 22,100 -1,080 Descending Indianapolis Center
02:51PM 38.4606 -83.1672 277° West 445 512 21,100 -1,260 Descending Indianapolis Center
02:52PM 38.4917 -83.3189 285° West 441 507 19,600 -1,860 Descending Indianapolis Center
02:53PM 38.5222 -83.4639 285° West 428 493 17,300 -2,340 Descending Indianapolis Center
02:54PM 38.5508 -83.6056 285° West 415 478 14,800 -2,280 Descending Indianapolis Center
02:55PM 38.5786 -83.7419 285° West 401 461 12,700 -2,220 Descending Indianapolis Center
02:56PM 38.6097 -83.8969 284° West 387 445 10,300 -1,320 Descending Indianapolis Center
02:57PM 38.6558 -84.0019 299° West 370 426 10,000 -180 Descending Indianapolis Center
02:58PM 38.7122 -84.1106 304° West 364 419 10,000  Level Indianapolis Center
02:59PM 38.7661 -84.2181 303° West 357 411 10,000  Level Indianapolis Center
03:00PM 38.8222 -84.3244 304° West 356 410 10,000 -480 Level Indianapolis Center
03:01PM 38.8756 -84.4294 303° West 301 346 9,100 -540 Descending Indianapolis Center
03:02PM 38.9247 -84.5164 306° West 297 342 9,000 -300 Descending Indianapolis Center
03:03PM 38.9967 -84.5450 343° North 283 326 8,500 -1,080 Descending Indianapolis Center
03:04PM 39.0686 -84.5397 North 259 298 6,800 -1,500 Descending Indianapolis Center
03:05PM 39.1397 -84.5414 359° North 254 292 5,500 -900 Descending Indianapolis Center
03:06PM 39.1950 -84.5600 345° North 238 274 5,000 -540 Descending Indianapolis Center